sensor_id;sensor_type;location;lat;lon;timestamp;temperature;humidity
52030;DHT22;38043;53.224;6.580;2023-03-13T00:00:46;8.20;99.90
52030;DHT22;38043;53.224;6.580;2023-03-13T00:03:11;8.30;99.90
52030;DHT22;38043;53.224;6.580;2023-03-13T00:05:37;8.20;99.90
52030;DHT22;38043;53.224;6.580;2023-03-13T00:08:03;8.20;99.90
52030;DHT22;38043;53.224;6.580;2023-03-13T00:10:28;8.20;99.90
52030;DHT22;38043;53.224;6.580;2023-03-13T00:12:54;8.20;99.90
52030;DHT22;38043;53.224;6.580;2023-03-13T00:15:20;8.20;99.90
52030;DHT22;38043;53.224;6.580;2023-03-13T00:17:45;8.20;99.90
52030;DHT22;38043;53.224;6.580;2023-03-13T00:20:11;8.20;99.90
52030;DHT22;38043;53.224;6.580;2023-03-13T00:22:37;8.10;99.90
52030;DHT22;38043;53.224;6.580;2023-03-13T00:25:02;8.10;99.90
52030;DHT22;38043;53.224;6.580;2023-03-13T00:27:32;8.20;99.90
52030;DHT22;38043;53.224;6.580;2023-03-13T00:29:58;8.20;99.90
52030;DHT22;38043;53.224;6.580;2023-03-13T00:32:24;8.20;99.90
52030;DHT22;38043;53.224;6.580;2023-03-13T00:34:49;8.10;99.90
52030;DHT22;38043;53.224;6.580;2023-03-13T00:37:15;8.20;99.90
52030;DHT22;38043;53.224;6.580;2023-03-13T00:39:41;8.10;99.90
52030;DHT22;38043;53.224;6.580;2023-03-13T00:42:06;8.30;99.90
52030;DHT22;38043;53.224;6.580;2023-03-13T00:44:32;8.10;99.90
52030;DHT22;38043;53.224;6.580;2023-03-13T00:46:58;8.10;99.90
52030;DHT22;38043;53.224;6.580;2023-03-13T00:49:24;8.10;99.90
52030;DHT22;38043;53.224;6.580;2023-03-13T00:51:49;8.00;99.90
52030;DHT22;38043;53.224;6.580;2023-03-13T00:54:15;8.10;99.90
52030;DHT22;38043;53.224;6.580;2023-03-13T00:56:40;8.10;99.90
52030;DHT22;38043;53.224;6.580;2023-03-13T00:59:06;8.00;99.90
52030;DHT22;38043;53.224;6.580;2023-03-13T01:01:33;8.00;99.90
52030;DHT22;38043;53.224;6.580;2023-03-13T01:04:04;8.00;99.90
52030;DHT22;38043;53.224;6.580;2023-03-13T01:06:32;8.50;99.90
52030;DHT22;38043;53.224;6.580;2023-03-13T01:08:58;8.10;99.90
52030;DHT22;38043;53.224;6.580;2023-03-13T01:11:30;8.00;99.90
52030;DHT22;38043;53.224;6.580;2023-03-13T01:14:02;8.10;99.90
52030;DHT22;38043;53.224;6.580;2023-03-13T01:16:30;8.10;99.90
52030;DHT22;38043;53.224;6.580;2023-03-13T01:18:59;8.00;99.90
52030;DHT22;38043;53.224;6.580;2023-03-13T01:21:25;8.10;99.90
52030;DHT22;38043;53.224;6.580;2023-03-13T01:23:52;8.10;99.90
52030;DHT22;38043;53.224;6.580;2023-03-13T01:26:18;8.10;99.90
52030;DHT22;38043;53.224;6.580;2023-03-13T01:28:44;8.10;99.90
52030;DHT22;38043;53.224;6.580;2023-03-13T01:33:40;8.10;99.90
52030;DHT22;38043;53.224;6.580;2023-03-13T01:36:06;8.10;99.90
52030;DHT22;38043;53.224;6.580;2023-03-13T01:38:33;8.10;99.90
52030;DHT22;38043;53.224;6.580;2023-03-13T01:40:58;8.10;99.90
52030;DHT22;38043;53.224;6.580;2023-03-13T01:43:32;8.10;99.90
52030;DHT22;38043;53.224;6.580;2023-03-13T01:49:14;8.00;99.90
52030;DHT22;38043;53.224;6.580;2023-03-13T01:52:25;8.10;99.90
52030;DHT22;38043;53.224;6.580;2023-03-13T01:57:05;8.10;99.90
52030;DHT22;38043;53.224;6.580;2023-03-13T02:00:03;8.10;99.90
52030;DHT22;38043;53.224;6.580;2023-03-13T02:02:33;8.10;99.90
52030;DHT22;38043;53.224;6.580;2023-03-13T02:05:01;8.10;99.90
52030;DHT22;38043;53.224;6.580;2023-03-13T02:07:32;8.10;99.90
52030;DHT22;38043;53.224;6.580;2023-03-13T02:09:59;8.10;99.90
52030;DHT22;38043;53.224;6.580;2023-03-13T02:12:31;8.10;99.90
52030;DHT22;38043;53.224;6.580;2023-03-13T02:15:04;8.10;99.90
52030;DHT22;38043;53.224;6.580;2023-03-13T02:17:32;8.10;99.90
52030;DHT22;38043;53.224;6.580;2023-03-13T02:19:58;8.10;99.90
52030;DHT22;38043;53.224;6.580;2023-03-13T02:22:45;8.10;99.90
52030;DHT22;38043;53.224;6.580;2023-03-13T02:27:54;8.10;99.90
52030;DHT22;38043;53.224;6.580;2023-03-13T02:30:21;8.10;99.90
52030;DHT22;38043;53.224;6.580;2023-03-13T02:32:47;8.20;99.90
52030;DHT22;38043;53.224;6.580;2023-03-13T02:35:16;8.10;99.90
52030;DHT22;38043;53.224;6.580;2023-03-13T02:37:44;8.10;99.90
52030;DHT22;38043;53.224;6.580;2023-03-13T02:40:14;8.10;99.90
52030;DHT22;38043;53.224;6.580;2023-03-13T02:42:42;8.10;99.90
52030;DHT22;38043;53.224;6.580;2023-03-13T02:45:09;8.10;99.90
52030;DHT22;38043;53.224;6.580;2023-03-13T02:47:37;8.10;99.90
52030;DHT22;38043;53.224;6.580;2023-03-13T02:50:03;8.10;99.90
52030;DHT22;38043;53.224;6.580;2023-03-13T02:52:32;8.20;99.90
52030;DHT22;38043;53.224;6.580;2023-03-13T02:55:06;8.10;99.90
52030;DHT22;38043;53.224;6.580;2023-03-13T02:57:34;8.10;99.90
52030;DHT22;38043;53.224;6.580;2023-03-13T03:00:01;8.20;99.90
52030;DHT22;38043;53.224;6.580;2023-03-13T03:02:29;8.20;99.90
52030;DHT22;38043;53.224;6.580;2023-03-13T03:04:55;8.20;99.90
52030;DHT22;38043;53.224;6.580;2023-03-13T03:07:20;8.20;99.90
52030;DHT22;38043;53.224;6.580;2023-03-13T03:09:46;8.50;99.90
52030;DHT22;38043;53.224;6.580;2023-03-13T03:12:11;8.20;99.90
52030;DHT22;38043;53.224;6.580;2023-03-13T03:14:37;8.30;99.90
52030;DHT22;38043;53.224;6.580;2023-03-13T03:17:03;8.30;99.90
52030;DHT22;38043;53.224;6.580;2023-03-13T03:19:28;8.30;99.90
52030;DHT22;38043;53.224;6.580;2023-03-13T03:21:54;8.30;99.90
52030;DHT22;38043;53.224;6.580;2023-03-13T03:24:20;8.30;99.90
52030;DHT22;38043;53.224;6.580;2023-03-13T03:26:45;8.40;99.90
52030;DHT22;38043;53.224;6.580;2023-03-13T03:29:11;8.40;99.90
52030;DHT22;38043;53.224;6.580;2023-03-13T03:31:37;8.40;99.90
52030;DHT22;38043;53.224;6.580;2023-03-13T03:34:02;8.40;99.90
52030;DHT22;38043;53.224;6.580;2023-03-13T03:36:28;8.40;99.90
52030;DHT22;38043;53.224;6.580;2023-03-13T03:38:54;8.50;99.90
52030;DHT22;38043;53.224;6.580;2023-03-13T03:41:20;8.50;99.90
52030;DHT22;38043;53.224;6.580;2023-03-13T03:43:46;8.50;99.90
52030;DHT22;38043;53.224;6.580;2023-03-13T03:46:13;8.60;99.90
52030;DHT22;38043;53.224;6.580;2023-03-13T03:48:39;8.60;99.90
52030;DHT22;38043;53.224;6.580;2023-03-13T03:51:05;8.50;99.90
52030;DHT22;38043;53.224;6.580;2023-03-13T03:53:30;8.50;99.90
52030;DHT22;38043;53.224;6.580;2023-03-13T03:55:57;8.50;99.90
52030;DHT22;38043;53.224;6.580;2023-03-13T03:58:23;8.60;99.90
52030;DHT22;38043;53.224;6.580;2023-03-13T04:00:48;8.60;99.90
52030;DHT22;38043;53.224;6.580;2023-03-13T04:03:14;8.60;99.90
52030;DHT22;38043;53.224;6.580;2023-03-13T04:05:41;8.70;99.90
52030;DHT22;38043;53.224;6.580;2023-03-13T04:08:07;8.60;99.90
52030;DHT22;38043;53.224;6.580;2023-03-13T04:10:33;8.60;99.90
52030;DHT22;38043;53.224;6.580;2023-03-13T04:12:59;8.70;99.90
52030;DHT22;38043;53.224;6.580;2023-03-13T04:15:24;8.70;99.90
52030;DHT22;38043;53.224;6.580;2023-03-13T04:17:50;8.80;99.90
52030;DHT22;38043;53.224;6.580;2023-03-13T04:20:15;8.80;99.90
52030;DHT22;38043;53.224;6.580;2023-03-13T04:22:42;8.80;99.90
52030;DHT22;38043;53.224;6.580;2023-03-13T04:25:08;8.90;99.90
52030;DHT22;38043;53.224;6.580;2023-03-13T04:27:34;8.90;99.90
52030;DHT22;38043;53.224;6.580;2023-03-13T04:29:59;9.00;99.90
52030;DHT22;38043;53.224;6.580;2023-03-13T04:32:25;9.10;99.90
52030;DHT22;38043;53.224;6.580;2023-03-13T04:34:51;9.20;99.90
52030;DHT22;38043;53.224;6.580;2023-03-13T04:37:17;9.20;99.90
52030;DHT22;38043;53.224;6.580;2023-03-13T04:39:43;9.30;99.90
52030;DHT22;38043;53.224;6.580;2023-03-13T04:42:10;9.30;99.90
52030;DHT22;38043;53.224;6.580;2023-03-13T04:44:35;9.40;99.90
52030;DHT22;38043;53.224;6.580;2023-03-13T04:47:01;9.40;99.90
52030;DHT22;38043;53.224;6.580;2023-03-13T04:49:27;9.40;99.90
52030;DHT22;38043;53.224;6.580;2023-03-13T04:51:53;9.50;99.90
52030;DHT22;38043;53.224;6.580;2023-03-13T04:54:18;9.50;99.90
52030;DHT22;38043;53.224;6.580;2023-03-13T04:56:44;9.60;99.90
52030;DHT22;38043;53.224;6.580;2023-03-13T04:59:10;9.60;99.90
52030;DHT22;38043;53.224;6.580;2023-03-13T05:01:36;9.70;99.90
52030;DHT22;38043;53.224;6.580;2023-03-13T05:04:02;9.80;99.90
52030;DHT22;38043;53.224;6.580;2023-03-13T05:06:28;9.80;99.90
52030;DHT22;38043;53.224;6.580;2023-03-13T05:08:54;9.80;99.90
52030;DHT22;38043;53.224;6.580;2023-03-13T05:11:19;9.90;99.90
52030;DHT22;38043;53.224;6.580;2023-03-13T05:13:45;9.90;99.90
52030;DHT22;38043;53.224;6.580;2023-03-13T05:16:11;10.00;99.90
52030;DHT22;38043;53.224;6.580;2023-03-13T05:18:36;10.00;99.90
52030;DHT22;38043;53.224;6.580;2023-03-13T05:21:04;10.00;99.90
52030;DHT22;38043;53.224;6.580;2023-03-13T05:23:29;10.10;99.90
52030;DHT22;38043;53.224;6.580;2023-03-13T05:25:55;10.20;99.90
52030;DHT22;38043;53.224;6.580;2023-03-13T05:28:20;10.30;99.90
52030;DHT22;38043;53.224;6.580;2023-03-13T05:30:46;10.30;99.90
52030;DHT22;38043;53.224;6.580;2023-03-13T05:33:12;10.30;99.90
52030;DHT22;38043;53.224;6.580;2023-03-13T05:35:37;10.40;99.90
52030;DHT22;38043;53.224;6.580;2023-03-13T05:38:03;10.50;99.90
52030;DHT22;38043;53.224;6.580;2023-03-13T05:40:29;10.50;99.90
52030;DHT22;38043;53.224;6.580;2023-03-13T05:42:55;10.50;99.90
52030;DHT22;38043;53.224;6.580;2023-03-13T05:45:21;10.60;99.90
52030;DHT22;38043;53.224;6.580;2023-03-13T05:47:47;10.60;99.90
52030;DHT22;38043;53.224;6.580;2023-03-13T05:50:12;10.70;99.90
52030;DHT22;38043;53.224;6.580;2023-03-13T05:52:38;10.70;99.90
52030;DHT22;38043;53.224;6.580;2023-03-13T05:55:04;10.70;99.90
52030;DHT22;38043;53.224;6.580;2023-03-13T05:57:30;10.70;99.90
52030;DHT22;38043;53.224;6.580;2023-03-13T05:59:55;10.70;99.90
52030;DHT22;38043;53.224;6.580;2023-03-13T06:02:21;10.70;99.90
52030;DHT22;38043;53.224;6.580;2023-03-13T06:04:47;10.60;99.90
52030;DHT22;38043;53.224;6.580;2023-03-13T06:07:12;10.70;99.90
52030;DHT22;38043;53.224;6.580;2023-03-13T06:09:38;10.90;99.90
52030;DHT22;38043;53.224;6.580;2023-03-13T06:12:06;10.70;99.90
52030;DHT22;38043;53.224;6.580;2023-03-13T06:14:32;10.70;99.90
52030;DHT22;38043;53.224;6.580;2023-03-13T06:16:58;10.70;99.90
52030;DHT22;38043;53.224;6.580;2023-03-13T06:19:23;10.80;99.90
52030;DHT22;38043;53.224;6.580;2023-03-13T06:21:50;10.70;99.90
52030;DHT22;38043;53.224;6.580;2023-03-13T06:24:16;10.70;99.90
52030;DHT22;38043;53.224;6.580;2023-03-13T06:26:41;10.80;99.90
52030;DHT22;38043;53.224;6.580;2023-03-13T06:29:08;10.80;99.90
52030;DHT22;38043;53.224;6.580;2023-03-13T06:31:34;10.70;99.90
52030;DHT22;38043;53.224;6.580;2023-03-13T06:33:59;10.70;99.90
52030;DHT22;38043;53.224;6.580;2023-03-13T06:36:25;10.70;99.90
52030;DHT22;38043;53.224;6.580;2023-03-13T06:38:51;10.70;99.90
52030;DHT22;38043;53.224;6.580;2023-03-13T06:41:16;10.70;99.90
52030;DHT22;38043;53.224;6.580;2023-03-13T06:43:43;10.70;99.90
52030;DHT22;38043;53.224;6.580;2023-03-13T06:46:16;10.80;99.90
52030;DHT22;38043;53.224;6.580;2023-03-13T06:48:42;10.90;99.90
52030;DHT22;38043;53.224;6.580;2023-03-13T06:51:12;10.90;99.90
52030;DHT22;38043;53.224;6.580;2023-03-13T06:53:39;10.80;99.90
52030;DHT22;38043;53.224;6.580;2023-03-13T06:56:04;10.90;99.90
52030;DHT22;38043;53.224;6.580;2023-03-13T06:58:30;10.90;99.90
52030;DHT22;38043;53.224;6.580;2023-03-13T07:00:56;11.00;99.90
52030;DHT22;38043;53.224;6.580;2023-03-13T07:03:21;10.90;99.90
52030;DHT22;38043;53.224;6.580;2023-03-13T07:05:47;11.00;99.90
52030;DHT22;38043;53.224;6.580;2023-03-13T07:08:13;11.00;99.90
52030;DHT22;38043;53.224;6.580;2023-03-13T07:10:41;11.00;99.90
52030;DHT22;38043;53.224;6.580;2023-03-13T07:13:06;11.00;99.90
52030;DHT22;38043;53.224;6.580;2023-03-13T07:15:32;11.00;99.90
52030;DHT22;38043;53.224;6.580;2023-03-13T07:17:57;11.10;99.90
52030;DHT22;38043;53.224;6.580;2023-03-13T07:20:23;11.10;99.90
52030;DHT22;38043;53.224;6.580;2023-03-13T07:22:52;11.20;99.90
52030;DHT22;38043;53.224;6.580;2023-03-13T07:25:18;11.10;99.90
52030;DHT22;38043;53.224;6.580;2023-03-13T07:27:44;11.30;99.90
52030;DHT22;38043;53.224;6.580;2023-03-13T07:30:10;11.20;99.90
52030;DHT22;38043;53.224;6.580;2023-03-13T07:32:37;11.10;99.90
52030;DHT22;38043;53.224;6.580;2023-03-13T07:35:02;11.20;99.90
52030;DHT22;38043;53.224;6.580;2023-03-13T07:37:29;11.20;99.90
52030;DHT22;38043;53.224;6.580;2023-03-13T07:39:54;11.30;99.90
52030;DHT22;38043;53.224;6.580;2023-03-13T07:42:20;11.20;99.90
52030;DHT22;38043;53.224;6.580;2023-03-13T07:44:46;11.20;99.90
52030;DHT22;38043;53.224;6.580;2023-03-13T07:47:11;11.20;99.90
52030;DHT22;38043;53.224;6.580;2023-03-13T07:49:37;11.20;99.90
52030;DHT22;38043;53.224;6.580;2023-03-13T07:52:06;11.20;99.90
52030;DHT22;38043;53.224;6.580;2023-03-13T07:54:32;11.20;99.90
52030;DHT22;38043;53.224;6.580;2023-03-13T07:56:57;11.10;99.90
52030;DHT22;38043;53.224;6.580;2023-03-13T07:59:23;11.10;99.90
52030;DHT22;38043;53.224;6.580;2023-03-13T08:01:49;11.10;99.90
52030;DHT22;38043;53.224;6.580;2023-03-13T08:04:14;11.20;99.90
52030;DHT22;38043;53.224;6.580;2023-03-13T08:06:40;11.80;99.90
52030;DHT22;38043;53.224;6.580;2023-03-13T08:09:06;11.10;99.90
52030;DHT22;38043;53.224;6.580;2023-03-13T08:11:32;11.10;99.90
52030;DHT22;38043;53.224;6.580;2023-03-13T08:13:58;11.20;99.90
52030;DHT22;38043;53.224;6.580;2023-03-13T08:16:28;11.20;99.90
52030;DHT22;38043;53.224;6.580;2023-03-13T08:18:56;11.20;99.90
52030;DHT22;38043;53.224;6.580;2023-03-13T08:21:24;11.30;99.90
52030;DHT22;38043;53.224;6.580;2023-03-13T08:23:55;11.30;99.90
52030;DHT22;38043;53.224;6.580;2023-03-13T08:26:24;11.50;99.90
52030;DHT22;38043;53.224;6.580;2023-03-13T08:28:53;11.40;99.90
52030;DHT22;38043;53.224;6.580;2023-03-13T08:31:24;11.50;99.90
52030;DHT22;38043;53.224;6.580;2023-03-13T08:33:50;11.60;99.90
52030;DHT22;38043;53.224;6.580;2023-03-13T08:36:25;11.60;99.90
52030;DHT22;38043;53.224;6.580;2023-03-13T08:38:52;11.80;99.90
52030;DHT22;38043;53.224;6.580;2023-03-13T08:41:24;11.90;99.90
52030;DHT22;38043;53.224;6.580;2023-03-13T08:43:57;12.10;99.90
52030;DHT22;38043;53.224;6.580;2023-03-13T08:46:23;12.20;99.90
52030;DHT22;38043;53.224;6.580;2023-03-13T08:48:50;12.20;99.90
52030;DHT22;38043;53.224;6.580;2023-03-13T08:51:17;12.30;99.90
52030;DHT22;38043;53.224;6.580;2023-03-13T08:53:43;12.40;99.90
52030;DHT22;38043;53.224;6.580;2023-03-13T08:56:12;12.60;99.90
52030;DHT22;38043;53.224;6.580;2023-03-13T08:58:38;12.70;99.90
52030;DHT22;38043;53.224;6.580;2023-03-13T09:01:06;12.90;99.90
52030;DHT22;38043;53.224;6.580;2023-03-13T09:03:33;12.80;99.90
52030;DHT22;38043;53.224;6.580;2023-03-13T09:05:59;13.00;99.90
52030;DHT22;38043;53.224;6.580;2023-03-13T09:08:26;13.00;99.90
52030;DHT22;38043;53.224;6.580;2023-03-13T09:11:00;13.10;99.90
52030;DHT22;38043;53.224;6.580;2023-03-13T09:13:26;13.10;99.90
52030;DHT22;38043;53.224;6.580;2023-03-13T09:15:58;13.10;99.90
52030;DHT22;38043;53.224;6.580;2023-03-13T09:18:24;13.10;99.90
52030;DHT22;38043;53.224;6.580;2023-03-13T09:20:50;13.00;99.90
52030;DHT22;38043;53.224;6.580;2023-03-13T09:23:15;12.90;99.90
52030;DHT22;38043;53.224;6.580;2023-03-13T09:25:41;12.90;99.90
52030;DHT22;38043;53.224;6.580;2023-03-13T09:28:07;12.80;99.90
52030;DHT22;38043;53.224;6.580;2023-03-13T09:30:32;12.80;99.90
52030;DHT22;38043;53.224;6.580;2023-03-13T09:32:58;12.80;99.90
52030;DHT22;38043;53.224;6.580;2023-03-13T09:35:24;12.80;99.90
52030;DHT22;38043;53.224;6.580;2023-03-13T09:37:49;12.70;99.90
52030;DHT22;38043;53.224;6.580;2023-03-13T09:40:17;12.60;99.90
52030;DHT22;38043;53.224;6.580;2023-03-13T09:42:48;12.60;99.90
52030;DHT22;38043;53.224;6.580;2023-03-13T09:45:17;12.50;99.90
52030;DHT22;38043;53.224;6.580;2023-03-13T09:47:51;12.60;99.90
52030;DHT22;38043;53.224;6.580;2023-03-13T09:50:32;12.60;99.90
52030;DHT22;38043;53.224;6.580;2023-03-13T09:53:33;12.60;99.90
52030;DHT22;38043;53.224;6.580;2023-03-13T09:56:03;12.70;99.90
52030;DHT22;38043;53.224;6.580;2023-03-13T09:58:29;12.70;99.90
52030;DHT22;38043;53.224;6.580;2023-03-13T10:01:04;12.70;99.90
52030;DHT22;38043;53.224;6.580;2023-03-13T10:03:46;12.70;99.90
52030;DHT22;38043;53.224;6.580;2023-03-13T10:06:19;12.90;99.90
52030;DHT22;38043;53.224;6.580;2023-03-13T10:08:45;13.20;99.90
52030;DHT22;38043;53.224;6.580;2023-03-13T10:12:11;13.40;99.90
52030;DHT22;38043;53.224;6.580;2023-03-13T10:14:26;13.70;99.90
52030;DHT22;38043;53.224;6.580;2023-03-13T10:19:31;14.30;99.90
52030;DHT22;38043;53.224;6.580;2023-03-13T10:22:01;14.50;99.90
52030;DHT22;38043;53.224;6.580;2023-03-13T10:27:10;14.80;99.90
52030;DHT22;38043;53.224;6.580;2023-03-13T10:29:37;14.80;99.90
52030;DHT22;38043;53.224;6.580;2023-03-13T10:32:07;15.00;99.90
52030;DHT22;38043;53.224;6.580;2023-03-13T10:37:30;14.90;99.90
52030;DHT22;38043;53.224;6.580;2023-03-13T10:40:22;14.80;99.90
52030;DHT22;38043;53.224;6.580;2023-03-13T10:42:50;14.70;99.90
52030;DHT22;38043;53.224;6.580;2023-03-13T10:45:19;14.60;99.90
52030;DHT22;38043;53.224;6.580;2023-03-13T10:47:56;14.60;99.90
52030;DHT22;38043;53.224;6.580;2023-03-13T10:50:26;14.60;99.90
52030;DHT22;38043;53.224;6.580;2023-03-13T10:52:52;14.50;99.90
52030;DHT22;38043;53.224;6.580;2023-03-13T10:55:23;14.50;99.90
52030;DHT22;38043;53.224;6.580;2023-03-13T11:00:34;14.20;99.90
52030;DHT22;38043;53.224;6.580;2023-03-13T11:06:04;14.30;99.90
52030;DHT22;38043;53.224;6.580;2023-03-13T11:08:40;14.60;99.90
52030;DHT22;38043;53.224;6.580;2023-03-13T11:11:17;14.50;99.90
52030;DHT22;38043;53.224;6.580;2023-03-13T11:13:44;14.50;99.90
52030;DHT22;38043;53.224;6.580;2023-03-13T11:18:48;14.40;99.90
52030;DHT22;38043;53.224;6.580;2023-03-13T11:21:23;14.60;99.90
52030;DHT22;38043;53.224;6.580;2023-03-13T11:23:57;14.80;99.90
52030;DHT22;38043;53.224;6.580;2023-03-13T11:26:30;14.80;99.90
52030;DHT22;38043;53.224;6.580;2023-03-13T11:29:04;14.60;99.90
52030;DHT22;38043;53.224;6.580;2023-03-13T11:31:38;14.60;99.90
52030;DHT22;38043;53.224;6.580;2023-03-13T11:34:18;14.60;99.90
52030;DHT22;38043;53.224;6.580;2023-03-13T11:39:37;14.50;99.90
52030;DHT22;38043;53.224;6.580;2023-03-13T11:44:51;14.40;99.90
52030;DHT22;38043;53.224;6.580;2023-03-13T11:50:24;14.40;99.90
52030;DHT22;38043;53.224;6.580;2023-03-13T11:56:15;14.30;99.90
52030;DHT22;38043;53.224;6.580;2023-03-13T12:01:33;14.40;99.90
52030;DHT22;38043;53.224;6.580;2023-03-13T12:04:10;14.50;99.90
52030;DHT22;38043;53.224;6.580;2023-03-13T12:06:46;14.40;99.90
52030;DHT22;38043;53.224;6.580;2023-03-13T12:09:36;14.50;99.90
52030;DHT22;38043;53.224;6.580;2023-03-13T12:12:14;14.60;99.90
52030;DHT22;38043;53.224;6.580;2023-03-13T12:14:52;14.70;99.90
52030;DHT22;38043;53.224;6.580;2023-03-13T12:25:23;14.80;99.90
52030;DHT22;38043;53.224;6.580;2023-03-13T12:30:58;14.80;99.90
52030;DHT22;38043;53.224;6.580;2023-03-13T12:33:35;14.90;99.90
52030;DHT22;38043;53.224;6.580;2023-03-13T12:36:11;14.90;99.90
52030;DHT22;38043;53.224;6.580;2023-03-13T12:41:22;15.30;99.90
52030;DHT22;38043;53.224;6.580;2023-03-13T12:43:51;15.70;99.90
52030;DHT22;38043;53.224;6.580;2023-03-13T12:46:35;15.90;99.90
52030;DHT22;38043;53.224;6.580;2023-03-13T12:52:33;17.20;99.90
52030;DHT22;38043;53.224;6.580;2023-03-13T12:58:52;17.50;99.90
52030;DHT22;38043;53.224;6.580;2023-03-13T13:00:47;17.20;99.90
52030;DHT22;38043;53.224;6.580;2023-03-13T13:08:39;16.10;99.90
52030;DHT22;38043;53.224;6.580;2023-03-13T13:14:00;15.70;99.90
52030;DHT22;38043;53.224;6.580;2023-03-13T13:16:27;15.50;99.90
52030;DHT22;38043;53.224;6.580;2023-03-13T13:18:54;15.40;99.90
52030;DHT22;38043;53.224;6.580;2023-03-13T13:21:22;15.20;99.90
52030;DHT22;38043;53.224;6.580;2023-03-13T13:23:51;15.00;99.90
52030;DHT22;38043;53.224;6.580;2023-03-13T13:28:59;14.80;99.90
52030;DHT22;38043;53.224;6.580;2023-03-13T13:31:53;14.60;99.90
52030;DHT22;38043;53.224;6.580;2023-03-13T13:36:57;14.50;99.90
52030;DHT22;38043;53.224;6.580;2023-03-13T13:39:40;14.40;99.90
52030;DHT22;38043;53.224;6.580;2023-03-13T13:45:17;14.40;99.90
52030;DHT22;38043;53.224;6.580;2023-03-13T13:47:49;14.40;99.90
52030;DHT22;38043;53.224;6.580;2023-03-13T13:50:25;14.30;99.90
52030;DHT22;38043;53.224;6.580;2023-03-13T13:52:51;14.30;99.90
52030;DHT22;38043;53.224;6.580;2023-03-13T13:58:16;14.30;99.90
52030;DHT22;38043;53.224;6.580;2023-03-13T14:01:06;14.30;99.90
52030;DHT22;38043;53.224;6.580;2023-03-13T14:03:53;14.20;99.90
52030;DHT22;38043;53.224;6.580;2023-03-13T14:06:28;14.20;99.90
52030;DHT22;38043;53.224;6.580;2023-03-13T14:09:13;14.20;99.90
52030;DHT22;38043;53.224;6.580;2023-03-13T14:11:40;14.20;99.90
52030;DHT22;38043;53.224;6.580;2023-03-13T14:14:17;14.20;99.90
52030;DHT22;38043;53.224;6.580;2023-03-13T14:16:49;14.20;99.90
52030;DHT22;38043;53.224;6.580;2023-03-13T14:21:50;14.10;99.90
52030;DHT22;38043;53.224;6.580;2023-03-13T14:24:16;14.10;99.90
52030;DHT22;38043;53.224;6.580;2023-03-13T14:26:43;14.20;99.90
52030;DHT22;38043;53.224;6.580;2023-03-13T14:29:18;14.10;99.90
52030;DHT22;38043;53.224;6.580;2023-03-13T14:31:52;14.20;99.90
52030;DHT22;38043;53.224;6.580;2023-03-13T14:34:18;14.20;99.90
52030;DHT22;38043;53.224;6.580;2023-03-13T14:36:55;14.20;99.90
52030;DHT22;38043;53.224;6.580;2023-03-13T14:39:44;14.10;99.90
52030;DHT22;38043;53.224;6.580;2023-03-13T14:42:12;14.10;99.90
52030;DHT22;38043;53.224;6.580;2023-03-13T14:44:39;14.10;99.90
52030;DHT22;38043;53.224;6.580;2023-03-13T14:47:26;14.10;99.90
52030;DHT22;38043;53.224;6.580;2023-03-13T14:49:59;14.10;99.90
52030;DHT22;38043;53.224;6.580;2023-03-13T14:52:27;14.00;99.90
52030;DHT22;38043;53.224;6.580;2023-03-13T14:55:29;14.00;99.90
52030;DHT22;38043;53.224;6.580;2023-03-13T14:57:59;14.00;99.90
52030;DHT22;38043;53.224;6.580;2023-03-13T15:09:06;13.90;99.90
52030;DHT22;38043;53.224;6.580;2023-03-13T15:11:38;13.80;99.90
52030;DHT22;38043;53.224;6.580;2023-03-13T15:14:33;13.80;99.90
52030;DHT22;38043;53.224;6.580;2023-03-13T15:16:59;13.80;99.90
52030;DHT22;38043;53.224;6.580;2023-03-13T15:19:24;13.80;99.90
52030;DHT22;38043;53.224;6.580;2023-03-13T15:21:51;13.80;99.90
52030;DHT22;38043;53.224;6.580;2023-03-13T15:24:17;13.80;99.90
52030;DHT22;38043;53.224;6.580;2023-03-13T15:26:43;13.70;99.90
52030;DHT22;38043;53.224;6.580;2023-03-13T15:29:11;13.60;99.90
52030;DHT22;38043;53.224;6.580;2023-03-13T15:31:37;13.60;99.90
52030;DHT22;38043;53.224;6.580;2023-03-13T15:34:08;13.60;99.90
52030;DHT22;38043;53.224;6.580;2023-03-13T15:36:35;13.60;99.90
52030;DHT22;38043;53.224;6.580;2023-03-13T15:39:01;13.50;99.90
52030;DHT22;38043;53.224;6.580;2023-03-13T15:41:29;13.50;99.90
52030;DHT22;38043;53.224;6.580;2023-03-13T15:43:55;13.50;99.90
52030;DHT22;38043;53.224;6.580;2023-03-13T15:46:22;13.40;99.90
52030;DHT22;38043;53.224;6.580;2023-03-13T15:48:49;13.50;99.90
52030;DHT22;38043;53.224;6.580;2023-03-13T15:51:16;13.40;99.90
52030;DHT22;38043;53.224;6.580;2023-03-13T15:53:42;13.30;99.90
52030;DHT22;38043;53.224;6.580;2023-03-13T15:56:16;13.40;99.90
52030;DHT22;38043;53.224;6.580;2023-03-13T15:58:44;13.30;99.90
52030;DHT22;38043;53.224;6.580;2023-03-13T16:01:12;13.20;99.90
52030;DHT22;38043;53.224;6.580;2023-03-13T16:03:38;13.20;99.90
52030;DHT22;38043;53.224;6.580;2023-03-13T16:06:20;13.20;99.90
52030;DHT22;38043;53.224;6.580;2023-03-13T16:08:55;13.10;99.90
52030;DHT22;38043;53.224;6.580;2023-03-13T16:11:21;13.10;99.90
52030;DHT22;38043;53.224;6.580;2023-03-13T16:13:47;13.00;99.90
52030;DHT22;38043;53.224;6.580;2023-03-13T16:16:30;13.00;99.90
52030;DHT22;38043;53.224;6.580;2023-03-13T16:18:58;13.00;99.90
52030;DHT22;38043;53.224;6.580;2023-03-13T16:21:29;12.90;99.90
52030;DHT22;38043;53.224;6.580;2023-03-13T16:23:55;12.80;99.90
52030;DHT22;38043;53.224;6.580;2023-03-13T16:26:23;12.80;99.90
52030;DHT22;38043;53.224;6.580;2023-03-13T16:28:49;12.80;99.90
52030;DHT22;38043;53.224;6.580;2023-03-13T16:31:21;12.70;99.90
52030;DHT22;38043;53.224;6.580;2023-03-13T16:33:48;12.70;99.90
52030;DHT22;38043;53.224;6.580;2023-03-13T16:36:19;12.60;99.90
52030;DHT22;38043;53.224;6.580;2023-03-13T16:38:47;12.60;99.90
52030;DHT22;38043;53.224;6.580;2023-03-13T16:41:18;12.50;99.90
52030;DHT22;38043;53.224;6.580;2023-03-13T16:43:45;12.50;99.90
52030;DHT22;38043;53.224;6.580;2023-03-13T16:46:22;12.50;99.90
52030;DHT22;38043;53.224;6.580;2023-03-13T16:48:49;12.40;99.90
52030;DHT22;38043;53.224;6.580;2023-03-13T16:51:20;12.40;99.90
52030;DHT22;38043;53.224;6.580;2023-03-13T16:53:48;12.30;99.90
52030;DHT22;38043;53.224;6.580;2023-03-13T16:58:52;12.20;99.90
52030;DHT22;38043;53.224;6.580;2023-03-13T17:01:21;12.20;99.90
52030;DHT22;38043;53.224;6.580;2023-03-13T17:03:49;12.20;99.90
52030;DHT22;38043;53.224;6.580;2023-03-13T17:06:23;12.10;99.90
52030;DHT22;38043;53.224;6.580;2023-03-13T17:08:49;12.10;99.90
52030;DHT22;38043;53.224;6.580;2023-03-13T17:11:16;12.00;99.90
52030;DHT22;38043;53.224;6.580;2023-03-13T17:13:45;12.10;99.90
52030;DHT22;38043;53.224;6.580;2023-03-13T17:16:13;11.90;99.90
52030;DHT22;38043;53.224;6.580;2023-03-13T17:18:39;11.90;99.90
52030;DHT22;38043;53.224;6.580;2023-03-13T17:21:11;12.00;99.90